sensor_id;sensor_type;location;lat;lon;timestamp;P1;durP1;ratioP1;P2;durP2;ratioP2
16403;SDS011;8311;50.158;8.642;2023-03-23T00:00:37;1.00;;;0.65;;
16403;SDS011;8311;50.158;8.642;2023-03-23T00:03:29;0.75;;;0.73;;
16403;SDS011;8311;50.158;8.642;2023-03-23T00:06:23;0.85;;;0.63;;
16403;SDS011;8311;50.158;8.642;2023-03-23T00:09:16;1.52;;;0.68;;
16403;SDS011;8311;50.158;8.642;2023-03-23T00:12:13;0.98;;;0.65;;
16403;SDS011;8311;50.158;8.642;2023-03-23T00:15:08;1.27;;;0.80;;
16403;SDS011;8311;50.158;8.642;2023-03-23T00:18:03;0.57;;;0.57;;
16403;SDS011;8311;50.158;8.642;2023-03-23T00:20:56;0.60;;;0.60;;
16403;SDS011;8311;50.158;8.642;2023-03-23T00:23:48;0.52;;;0.50;;
16403;SDS011;8311;50.158;8.642;2023-03-23T00:26:40;1.55;;;0.95;;
16403;SDS011;8311;50.158;8.642;2023-03-23T00:29:34;1.15;;;0.68;;
16403;SDS011;8311;50.158;8.642;2023-03-23T00:32:28;3.70;;;0.75;;
16403;SDS011;8311;50.158;8.642;2023-03-23T00:35:20;0.73;;;0.60;;
16403;SDS011;8311;50.158;8.642;2023-03-23T00:38:12;4.95;;;1.20;;
16403;SDS011;8311;50.158;8.642;2023-03-23T00:41:04;7.53;;;1.20;;
16403;SDS011;8311;50.158;8.642;2023-03-23T00:43:57;2.25;;;0.77;;
16403;SDS011;8311;50.158;8.642;2023-03-23T00:46:51;4.32;;;1.15;;
16403;SDS011;8311;50.158;8.642;2023-03-23T00:49:48;2.05;;;0.95;;
16403;SDS011;8311;50.158;8.642;2023-03-23T00:52:42;2.80;;;0.80;;
16403;SDS011;8311;50.158;8.642;2023-03-23T00:55:34;2.13;;;1.00;;
16403;SDS011;8311;50.158;8.642;2023-03-23T00:58:26;1.73;;;1.05;;
16403;SDS011;8311;50.158;8.642;2023-03-23T01:01:18;2.35;;;0.85;;
16403;SDS011;8311;50.158;8.642;2023-03-23T01:04:10;1.85;;;0.90;;
16403;SDS011;8311;50.158;8.642;2023-03-23T01:07:04;0.88;;;0.70;;
16403;SDS011;8311;50.158;8.642;2023-03-23T01:09:58;2.85;;;0.90;;
16403;SDS011;8311;50.158;8.642;2023-03-23T01:12:50;2.05;;;1.00;;
16403;SDS011;8311;50.158;8.642;2023-03-23T01:15:43;1.55;;;0.80;;
16403;SDS011;8311;50.158;8.642;2023-03-23T01:18:37;2.80;;;1.33;;
16403;SDS011;8311;50.158;8.642;2023-03-23T01:21:30;1.77;;;0.93;;
16403;SDS011;8311;50.158;8.642;2023-03-23T01:24:24;1.38;;;0.82;;
16403;SDS011;8311;50.158;8.642;2023-03-23T01:27:16;2.45;;;0.88;;
16403;SDS011;8311;50.158;8.642;2023-03-23T01:30:10;2.60;;;1.00;;
16403;SDS011;8311;50.158;8.642;2023-03-23T01:33:03;2.08;;;0.90;;
16403;SDS011;8311;50.158;8.642;2023-03-23T01:35:55;2.97;;;1.00;;
16403;SDS011;8311;50.158;8.642;2023-03-23T01:38:48;0.88;;;0.70;;
16403;SDS011;8311;50.158;8.642;2023-03-23T01:41:42;1.65;;;0.90;;
16403;SDS011;8311;50.158;8.642;2023-03-23T01:48:17;1.90;;;0.90;;
16403;SDS011;8311;50.158;8.642;2023-03-23T01:51:14;1.92;;;1.02;;
16403;SDS011;8311;50.158;8.642;2023-03-23T01:54:09;1.13;;;0.90;;
16403;SDS011;8311;50.158;8.642;2023-03-23T01:57:06;2.67;;;1.05;;
16403;SDS011;8311;50.158;8.642;2023-03-23T02:00:03;2.28;;;1.15;;
16403;SDS011;8311;50.158;8.642;2023-03-23T02:03:04;1.95;;;0.90;;
16403;SDS011;8311;50.158;8.642;2023-03-23T02:05:58;1.35;;;0.80;;
16403;SDS011;8311;50.158;8.642;2023-03-23T02:08:50;4.20;;;1.00;;
16403;SDS011;8311;50.158;8.642;2023-03-23T02:11:43;1.55;;;0.93;;
16403;SDS011;8311;50.158;8.642;2023-03-23T02:14:37;1.75;;;0.90;;
16403;SDS011;8311;50.158;8.642;2023-03-23T02:17:30;1.92;;;1.00;;
16403;SDS011;8311;50.158;8.642;2023-03-23T02:20:42;3.17;;;1.15;;
16403;SDS011;8311;50.158;8.642;2023-03-23T02:23:56;1.20;;;0.73;;
16403;SDS011;8311;50.158;8.642;2023-03-23T02:26:58;1.92;;;1.10;;
16403;SDS011;8311;50.158;8.642;2023-03-23T02:30:00;1.55;;;0.90;;
16403;SDS011;8311;50.158;8.642;2023-03-23T02:33:22;2.05;;;1.00;;
16403;SDS011;8311;50.158;8.642;2023-03-23T02:36:35;1.58;;;0.70;;
16403;SDS011;8311;50.158;8.642;2023-03-23T02:39:34;2.15;;;0.70;;
16403;SDS011;8311;50.158;8.642;2023-03-23T02:42:32;1.33;;;0.70;;
16403;SDS011;8311;50.158;8.642;2023-03-23T02:45:28;2.25;;;1.00;;
16403;SDS011;8311;50.158;8.642;2023-03-23T02:48:24;2.78;;;1.20;;
16403;SDS011;8311;50.158;8.642;2023-03-23T02:51:19;2.25;;;0.82;;
16403;SDS011;8311;50.158;8.642;2023-03-23T02:54:14;1.50;;;1.00;;
16403;SDS011;8311;50.158;8.642;2023-03-23T02:57:07;2.45;;;1.05;;
16403;SDS011;8311;50.158;8.642;2023-03-23T02:59:59;1.80;;;1.08;;
16403;SDS011;8311;50.158;8.642;2023-03-23T03:02:52;1.02;;;0.88;;
16403;SDS011;8311;50.158;8.642;2023-03-23T03:05:51;2.03;;;0.85;;
16403;SDS011;8311;50.158;8.642;2023-03-23T03:08:52;1.48;;;0.90;;
16403;SDS011;8311;50.158;8.642;2023-03-23T03:11:49;0.85;;;0.70;;
16403;SDS011;8311;50.158;8.642;2023-03-23T03:14:49;1.25;;;0.70;;
16403;SDS011;8311;50.158;8.642;2023-03-23T03:17:48;1.10;;;0.68;;
16403;SDS011;8311;50.158;8.642;2023-03-23T03:20:52;3.35;;;0.98;;
16403;SDS011;8311;50.158;8.642;2023-03-23T03:23:47;1.35;;;1.00;;
16403;SDS011;8311;50.158;8.642;2023-03-23T03:26:42;1.50;;;0.68;;
16403;SDS011;8311;50.158;8.642;2023-03-23T03:29:37;1.20;;;1.08;;
16403;SDS011;8311;50.158;8.642;2023-03-23T03:32:34;2.58;;;1.02;;
16403;SDS011;8311;50.158;8.642;2023-03-23T03:35:30;1.23;;;0.77;;
16403;SDS011;8311;50.158;8.642;2023-03-23T03:38:25;1.35;;;1.00;;
16403;SDS011;8311;50.158;8.642;2023-03-23T03:41:18;1.98;;;1.00;;
16403;SDS011;8311;50.158;8.642;2023-03-23T03:44:10;0.95;;;0.80;;
16403;SDS011;8311;50.158;8.642;2023-03-23T03:47:02;2.25;;;1.10;;
16403;SDS011;8311;50.158;8.642;2023-03-23T03:49:54;2.47;;;1.00;;
16403;SDS011;8311;50.158;8.642;2023-03-23T03:52:46;1.60;;;0.90;;
16403;SDS011;8311;50.158;8.642;2023-03-23T03:55:39;2.15;;;1.00;;
16403;SDS011;8311;50.158;8.642;2023-03-23T03:58:36;2.08;;;1.10;;
16403;SDS011;8311;50.158;8.642;2023-03-23T04:01:27;1.27;;;0.73;;
16403;SDS011;8311;50.158;8.642;2023-03-23T04:04:20;1.50;;;1.00;;
16403;SDS011;8311;50.158;8.642;2023-03-23T04:07:13;2.10;;;1.13;;
16403;SDS011;8311;50.158;8.642;2023-03-23T04:10:07;1.17;;;1.00;;
16403;SDS011;8311;50.158;8.642;2023-03-23T04:13:02;2.35;;;1.27;;
16403;SDS011;8311;50.158;8.642;2023-03-23T04:15:54;2.65;;;1.02;;
16403;SDS011;8311;50.158;8.642;2023-03-23T04:18:46;2.00;;;1.30;;
16403;SDS011;8311;50.158;8.642;2023-03-23T04:21:38;2.15;;;1.02;;
16403;SDS011;8311;50.158;8.642;2023-03-23T04:24:30;2.55;;;0.95;;
16403;SDS011;8311;50.158;8.642;2023-03-23T04:27:24;2.40;;;1.27;;
16403;SDS011;8311;50.158;8.642;2023-03-23T04:30:20;2.08;;;1.17;;
16403;SDS011;8311;50.158;8.642;2023-03-23T04:33:13;2.72;;;1.10;;
16403;SDS011;8311;50.158;8.642;2023-03-23T04:36:05;2.20;;;1.00;;
16403;SDS011;8311;50.158;8.642;2023-03-23T04:38:57;2.42;;;1.20;;
16403;SDS011;8311;50.158;8.642;2023-03-23T04:41:50;2.13;;;1.13;;
16403;SDS011;8311;50.158;8.642;2023-03-23T04:44:42;2.20;;;0.93;;
16403;SDS011;8311;50.158;8.642;2023-03-23T04:47:44;1.80;;;1.30;;
16403;SDS011;8311;50.158;8.642;2023-03-23T04:50:42;3.10;;;1.27;;
16403;SDS011;8311;50.158;8.642;2023-03-23T04:53:35;0.82;;;0.73;;
16403;SDS011;8311;50.158;8.642;2023-03-23T04:56:27;2.65;;;1.20;;
16403;SDS011;8311;50.158;8.642;2023-03-23T04:59:18;2.25;;;1.30;;
16403;SDS011;8311;50.158;8.642;2023-03-23T05:02:11;1.80;;;1.17;;
16403;SDS011;8311;50.158;8.642;2023-03-23T05:05:05;3.28;;;1.20;;
16403;SDS011;8311;50.158;8.642;2023-03-23T05:07:57;2.40;;;1.05;;
16403;SDS011;8311;50.158;8.642;2023-03-23T05:10:50;1.65;;;1.25;;
16403;SDS011;8311;50.158;8.642;2023-03-23T05:13:43;3.03;;;1.48;;
16403;SDS011;8311;50.158;8.642;2023-03-23T05:16:35;3.95;;;1.30;;
16403;SDS011;8311;50.158;8.642;2023-03-23T05:19:27;2.22;;;1.17;;
16403;SDS011;8311;50.158;8.642;2023-03-23T05:22:21;2.50;;;1.13;;
16403;SDS011;8311;50.158;8.642;2023-03-23T05:25:13;4.30;;;1.60;;
16403;SDS011;8311;50.158;8.642;2023-03-23T05:28:06;3.22;;;1.52;;
16403;SDS011;8311;50.158;8.642;2023-03-23T05:30:57;1.80;;;1.17;;
16403;SDS011;8311;50.158;8.642;2023-03-23T05:33:50;2.95;;;1.70;;
16403;SDS011;8311;50.158;8.642;2023-03-23T05:36:41;1.80;;;1.00;;
16403;SDS011;8311;50.158;8.642;2023-03-23T05:39:36;1.75;;;1.25;;
16403;SDS011;8311;50.158;8.642;2023-03-23T05:42:29;2.17;;;1.50;;
16403;SDS011;8311;50.158;8.642;2023-03-23T05:45:21;2.42;;;1.15;;
16403;SDS011;8311;50.158;8.642;2023-03-23T05:48:13;2.22;;;1.30;;
16403;SDS011;8311;50.158;8.642;2023-03-23T05:51:05;5.07;;;1.30;;
16403;SDS011;8311;50.158;8.642;2023-03-23T05:53:58;1.70;;;1.13;;
16403;SDS011;8311;50.158;8.642;2023-03-23T05:56:50;2.58;;;1.40;;
16403;SDS011;8311;50.158;8.642;2023-03-23T05:59:43;3.80;;;1.60;;
16403;SDS011;8311;50.158;8.642;2023-03-23T06:02:36;2.53;;;1.35;;
16403;SDS011;8311;50.158;8.642;2023-03-23T06:05:27;2.95;;;1.60;;
16403;SDS011;8311;50.158;8.642;2023-03-23T06:08:19;4.03;;;1.40;;
16403;SDS011;8311;50.158;8.642;2023-03-23T06:11:13;2.55;;;1.25;;
16403;SDS011;8311;50.158;8.642;2023-03-23T06:14:06;2.20;;;1.23;;
16403;SDS011;8311;50.158;8.642;2023-03-23T06:16:58;1.90;;;1.15;;
16403;SDS011;8311;50.158;8.642;2023-03-23T06:19:50;2.42;;;1.40;;
16403;SDS011;8311;50.158;8.642;2023-03-23T06:22:42;1.95;;;1.42;;
16403;SDS011;8311;50.158;8.642;2023-03-23T06:25:35;1.45;;;1.08;;
16403;SDS011;8311;50.158;8.642;2023-03-23T06:28:26;2.88;;;1.50;;
16403;SDS011;8311;50.158;8.642;2023-03-23T06:31:20;1.73;;;1.13;;
16403;SDS011;8311;50.158;8.642;2023-03-23T06:34:13;1.98;;;1.10;;
16403;SDS011;8311;50.158;8.642;2023-03-23T06:37:05;2.25;;;1.25;;
16403;SDS011;8311;50.158;8.642;2023-03-23T06:39:56;2.10;;;1.27;;
16403;SDS011;8311;50.158;8.642;2023-03-23T06:42:48;1.58;;;1.08;;
16403;SDS011;8311;50.158;8.642;2023-03-23T06:45:40;1.40;;;1.10;;
16403;SDS011;8311;50.158;8.642;2023-03-23T06:48:34;3.33;;;1.60;;
16403;SDS011;8311;50.158;8.642;2023-03-23T06:51:26;1.67;;;1.15;;
16403;SDS011;8311;50.158;8.642;2023-03-23T06:54:19;1.80;;;1.13;;
16403;SDS011;8311;50.158;8.642;2023-03-23T06:57:10;1.50;;;0.90;;
16403;SDS011;8311;50.158;8.642;2023-03-23T07:00:03;1.95;;;1.20;;
16403;SDS011;8311;50.158;8.642;2023-03-23T07:03:03;1.50;;;1.17;;
16403;SDS011;8311;50.158;8.642;2023-03-23T07:05:57;2.10;;;0.88;;
16403;SDS011;8311;50.158;8.642;2023-03-23T07:08:49;2.40;;;1.10;;
16403;SDS011;8311;50.158;8.642;2023-03-23T07:11:42;3.03;;;1.35;;
16403;SDS011;8311;50.158;8.642;2023-03-23T07:14:34;2.08;;;1.35;;
16403;SDS011;8311;50.158;8.642;2023-03-23T07:17:26;2.60;;;1.15;;
16403;SDS011;8311;50.158;8.642;2023-03-23T07:20:18;2.08;;;1.17;;
16403;SDS011;8311;50.158;8.642;2023-03-23T07:23:12;1.48;;;1.10;;
16403;SDS011;8311;50.158;8.642;2023-03-23T07:26:05;3.20;;;1.35;;
16403;SDS011;8311;50.158;8.642;2023-03-23T07:28:58;2.10;;;1.13;;
16403;SDS011;8311;50.158;8.642;2023-03-23T07:31:49;3.50;;;1.30;;
16403;SDS011;8311;50.158;8.642;2023-03-23T07:34:42;2.75;;;1.30;;
16403;SDS011;8311;50.158;8.642;2023-03-23T07:37:33;2.35;;;1.23;;
16403;SDS011;8311;50.158;8.642;2023-03-23T07:40:28;2.95;;;1.17;;
16403;SDS011;8311;50.158;8.642;2023-03-23T07:43:23;2.03;;;0.82;;
16403;SDS011;8311;50.158;8.642;2023-03-23T07:46:15;2.22;;;1.33;;
16403;SDS011;8311;50.158;8.642;2023-03-23T07:49:08;2.08;;;1.23;;
16403;SDS011;8311;50.158;8.642;2023-03-23T07:52:01;2.25;;;1.30;;
16403;SDS011;8311;50.158;8.642;2023-03-23T07:54:52;3.55;;;1.33;;
16403;SDS011;8311;50.158;8.642;2023-03-23T07:57:46;3.47;;;1.38;;
16403;SDS011;8311;50.158;8.642;2023-03-23T08:00:39;3.13;;;1.67;;
16403;SDS011;8311;50.158;8.642;2023-03-23T08:03:30;2.95;;;1.25;;
16403;SDS011;8311;50.158;8.642;2023-03-23T08:06:24;3.00;;;1.50;;
16403;SDS011;8311;50.158;8.642;2023-03-23T08:09:16;2.60;;;1.48;;
16403;SDS011;8311;50.158;8.642;2023-03-23T08:12:08;2.67;;;1.38;;
16403;SDS011;8311;50.158;8.642;2023-03-23T08:15:01;1.60;;;1.23;;
16403;SDS011;8311;50.158;8.642;2023-03-23T08:17:52;2.42;;;1.42;;
16403;SDS011;8311;50.158;8.642;2023-03-23T08:20:45;3.20;;;1.52;;
16403;SDS011;8311;50.158;8.642;2023-03-23T08:23:39;4.57;;;1.40;;
16403;SDS011;8311;50.158;8.642;2023-03-23T08:26:31;3.92;;;1.50;;
16403;SDS011;8311;50.158;8.642;2023-03-23T08:29:23;2.83;;;1.50;;
16403;SDS011;8311;50.158;8.642;2023-03-23T08:32:17;3.10;;;1.60;;
16403;SDS011;8311;50.158;8.642;2023-03-23T08:35:10;2.72;;;1.67;;
16403;SDS011;8311;50.158;8.642;2023-03-23T08:38:03;2.65;;;1.45;;
16403;SDS011;8311;50.158;8.642;2023-03-23T08:40:56;2.15;;;1.45;;
16403;SDS011;8311;50.158;8.642;2023-03-23T08:43:49;2.75;;;1.38;;
16403;SDS011;8311;50.158;8.642;2023-03-23T08:46:42;2.92;;;1.50;;
16403;SDS011;8311;50.158;8.642;2023-03-23T08:49:36;4.82;;;1.40;;
16403;SDS011;8311;50.158;8.642;2023-03-23T08:52:27;3.40;;;1.73;;
16403;SDS011;8311;50.158;8.642;2023-03-23T08:55:21;6.40;;;1.55;;
16403;SDS011;8311;50.158;8.642;2023-03-23T08:58:14;12.35;;;1.75;;
16403;SDS011;8311;50.158;8.642;2023-03-23T09:01:08;6.75;;;1.63;;
16403;SDS011;8311;50.158;8.642;2023-03-23T09:04:01;10.10;;;2.15;;
16403;SDS011;8311;50.158;8.642;2023-03-23T09:06:56;15.98;;;2.50;;
16403;SDS011;8311;50.158;8.642;2023-03-23T09:09:48;10.77;;;1.90;;
16403;SDS011;8311;50.158;8.642;2023-03-23T09:12:40;5.75;;;1.30;;
16403;SDS011;8311;50.158;8.642;2023-03-23T09:15:32;6.68;;;1.80;;
16403;SDS011;8311;50.158;8.642;2023-03-23T09:18:25;3.20;;;1.40;;
16403;SDS011;8311;50.158;8.642;2023-03-23T09:21:18;3.55;;;1.27;;
16403;SDS011;8311;50.158;8.642;2023-03-23T09:24:12;5.22;;;1.55;;
16403;SDS011;8311;50.158;8.642;2023-03-23T09:27:04;2.53;;;1.13;;
16403;SDS011;8311;50.158;8.642;2023-03-23T09:29:56;4.18;;;1.52;;
16403;SDS011;8311;50.158;8.642;2023-03-23T09:32:49;3.45;;;1.40;;
16403;SDS011;8311;50.158;8.642;2023-03-23T09:35:41;7.55;;;1.33;;
16403;SDS011;8311;50.158;8.642;2023-03-23T09:38:34;2.47;;;1.20;;
16403;SDS011;8311;50.158;8.642;2023-03-23T09:41:37;4.22;;;1.30;;
16403;SDS011;8311;50.158;8.642;2023-03-23T09:44:50;3.05;;;1.20;;
16403;SDS011;8311;50.158;8.642;2023-03-23T09:47:59;2.65;;;1.10;;
16403;SDS011;8311;50.158;8.642;2023-03-23T09:51:00;3.03;;;1.45;;
16403;SDS011;8311;50.158;8.642;2023-03-23T09:54:02;2.47;;;1.25;;
16403;SDS011;8311;50.158;8.642;2023-03-23T09:56:59;2.80;;;1.00;;
16403;SDS011;8311;50.158;8.642;2023-03-23T09:59:54;2.78;;;1.10;;
16403;SDS011;8311;50.158;8.642;2023-03-23T10:02:53;1.60;;;0.90;;
16403;SDS011;8311;50.158;8.642;2023-03-23T10:05:51;2.13;;;1.15;;
16403;SDS011;8311;50.158;8.642;2023-03-23T10:08:46;4.35;;;1.38;;
16403;SDS011;8311;50.158;8.642;2023-03-23T10:11:50;1.67;;;1.00;;
16403;SDS011;8311;50.158;8.642;2023-03-23T10:15:02;1.65;;;0.90;;
16403;SDS011;8311;50.158;8.642;2023-03-23T10:18:04;1.88;;;0.93;;
16403;SDS011;8311;50.158;8.642;2023-03-23T10:21:01;1.70;;;1.00;;
16403;SDS011;8311;50.158;8.642;2023-03-23T10:23:53;2.78;;;1.10;;
16403;SDS011;8311;50.158;8.642;2023-03-23T10:26:52;2.90;;;1.20;;
16403;SDS011;8311;50.158;8.642;2023-03-23T10:29:52;2.40;;;1.20;;
16403;SDS011;8311;50.158;8.642;2023-03-23T10:32:51;1.23;;;1.00;;
16403;SDS011;8311;50.158;8.642;2023-03-23T10:35:47;1.77;;;1.05;;
16403;SDS011;8311;50.158;8.642;2023-03-23T10:38:43;1.33;;;0.77;;
16403;SDS011;8311;50.158;8.642;2023-03-23T10:41:37;0.95;;;0.85;;
16403;SDS011;8311;50.158;8.642;2023-03-23T10:44:30;1.75;;;0.88;;
16403;SDS011;8311;50.158;8.642;2023-03-23T10:47:23;2.45;;;1.08;;
16403;SDS011;8311;50.158;8.642;2023-03-23T10:50:18;1.67;;;0.77;;
16403;SDS011;8311;50.158;8.642;2023-03-23T10:53:16;3.55;;;1.05;;
16403;SDS011;8311;50.158;8.642;2023-03-23T10:56:19;2.85;;;0.68;;
16403;SDS011;8311;50.158;8.642;2023-03-23T10:59:14;3.33;;;1.13;;
16403;SDS011;8311;50.158;8.642;2023-03-23T11:02:13;1.20;;;0.80;;
16403;SDS011;8311;50.158;8.642;2023-03-23T11:05:13;3.13;;;0.98;;
16403;SDS011;8311;50.158;8.642;2023-03-23T11:08:11;2.58;;;1.10;;
16403;SDS011;8311;50.158;8.642;2023-03-23T11:11:09;1.23;;;0.88;;
16403;SDS011;8311;50.158;8.642;2023-03-23T11:14:13;1.50;;;1.00;;
16403;SDS011;8311;50.158;8.642;2023-03-23T11:17:20;1.48;;;0.90;;
16403;SDS011;8311;50.158;8.642;2023-03-23T11:20:20;2.25;;;1.08;;
16403;SDS011;8311;50.158;8.642;2023-03-23T11:23:16;1.77;;;0.90;;
16403;SDS011;8311;50.158;8.642;2023-03-23T11:26:13;1.73;;;1.00;;
16403;SDS011;8311;50.158;8.642;2023-03-23T11:29:09;1.83;;;0.80;;
16403;SDS011;8311;50.158;8.642;2023-03-23T11:32:04;1.48;;;0.80;;
16403;SDS011;8311;50.158;8.642;2023-03-23T11:35:02;1.63;;;0.95;;
16403;SDS011;8311;50.158;8.642;2023-03-23T11:37:59;0.85;;;0.65;;
16403;SDS011;8311;50.158;8.642;2023-03-23T11:40:53;1.85;;;0.75;;
16403;SDS011;8311;50.158;8.642;2023-03-23T11:43:46;2.47;;;0.88;;
16403;SDS011;8311;50.158;8.642;2023-03-23T11:46:41;0.70;;;0.60;;
16403;SDS011;8311;50.158;8.642;2023-03-23T11:49:41;2.55;;;0.93;;
16403;SDS011;8311;50.158;8.642;2023-03-23T11:52:39;1.85;;;0.50;;
16403;SDS011;8311;50.158;8.642;2023-03-23T11:55:49;2.15;;;1.00;;
16403;SDS011;8311;50.158;8.642;2023-03-23T11:58:45;1.13;;;0.70;;
16403;SDS011;8311;50.158;8.642;2023-03-23T12:01:40;2.13;;;0.90;;
16403;SDS011;8311;50.158;8.642;2023-03-23T12:04:47;1.50;;;0.90;;
16403;SDS011;8311;50.158;8.642;2023-03-23T12:07:52;1.25;;;0.70;;
16403;SDS011;8311;50.158;8.642;2023-03-23T12:10:54;2.58;;;0.80;;
16403;SDS011;8311;50.158;8.642;2023-03-23T12:13:56;1.55;;;0.95;;
16403;SDS011;8311;50.158;8.642;2023-03-23T12:17:00;0.95;;;0.68;;
16403;SDS011;8311;50.158;8.642;2023-03-23T12:20:03;0.65;;;0.52;;
16403;SDS011;8311;50.158;8.642;2023-03-23T12:23:20;3.25;;;0.93;;
16403;SDS011;8311;50.158;8.642;2023-03-23T12:26:18;2.50;;;0.70;;
16403;SDS011;8311;50.158;8.642;2023-03-23T12:29:19;1.92;;;0.80;;
16403;SDS011;8311;50.158;8.642;2023-03-23T12:32:35;1.08;;;0.80;;
16403;SDS011;8311;50.158;8.642;2023-03-23T12:35:36;1.52;;;0.70;;
16403;SDS011;8311;50.158;8.642;2023-03-23T12:38:43;1.25;;;0.82;;
16403;SDS011;8311;50.158;8.642;2023-03-23T12:41:45;0.77;;;0.57;;
16403;SDS011;8311;50.158;8.642;2023-03-23T12:44:45;1.30;;;0.77;;
16403;SDS011;8311;50.158;8.642;2023-03-23T12:47:39;1.52;;;0.80;;
16403;SDS011;8311;50.158;8.642;2023-03-23T12:50:35;1.42;;;0.70;;
16403;SDS011;8311;50.158;8.642;2023-03-23T12:53:32;1.63;;;0.82;;
16403;SDS011;8311;50.158;8.642;2023-03-23T12:56:30;1.15;;;0.75;;
16403;SDS011;8311;50.158;8.642;2023-03-23T12:59:32;0.73;;;0.63;;
16403;SDS011;8311;50.158;8.642;2023-03-23T13:02:32;1.08;;;0.75;;
16403;SDS011;8311;50.158;8.642;2023-03-23T13:05:39;0.93;;;0.80;;
16403;SDS011;8311;50.158;8.642;2023-03-23T13:08:36;1.25;;;0.80;;
16403;SDS011;8311;50.158;8.642;2023-03-23T13:11:32;0.88;;;0.77;;
16403;SDS011;8311;50.158;8.642;2023-03-23T13:14:27;1.80;;;0.90;;
16403;SDS011;8311;50.158;8.642;2023-03-23T13:17:34;1.88;;;0.68;;
16403;SDS011;8311;50.158;8.642;2023-03-23T13:23:47;1.45;;;0.82;;
16403;SDS011;8311;50.158;8.642;2023-03-23T13:26:42;1.55;;;0.80;;
16403;SDS011;8311;50.158;8.642;2023-03-23T13:29:36;2.75;;;0.80;;
16403;SDS011;8311;50.158;8.642;2023-03-23T13:32:36;1.20;;;0.77;;
16403;SDS011;8311;50.158;8.642;2023-03-23T13:35:33;1.05;;;0.77;;
16403;SDS011;8311;50.158;8.642;2023-03-23T13:38:28;1.60;;;0.88;;
16403;SDS011;8311;50.158;8.642;2023-03-23T13:41:21;0.80;;;0.80;;
16403;SDS011;8311;50.158;8.642;2023-03-23T13:44:18;3.10;;;0.60;;
16403;SDS011;8311;50.158;8.642;2023-03-23T13:47:26;1.20;;;0.70;;
16403;SDS011;8311;50.158;8.642;2023-03-23T13:50:26;3.05;;;0.70;;
16403;SDS011;8311;50.158;8.642;2023-03-23T13:53:27;2.65;;;0.65;;
16403;SDS011;8311;50.158;8.642;2023-03-23T13:56:34;0.80;;;0.65;;
16403;SDS011;8311;50.158;8.642;2023-03-23T13:59:33;1.85;;;0.70;;
16403;SDS011;8311;50.158;8.642;2023-03-23T14:02:30;1.70;;;0.95;;
16403;SDS011;8311;50.158;8.642;2023-03-23T14:05:34;1.70;;;0.57;;
16403;SDS011;8311;50.158;8.642;2023-03-23T14:08:36;1.40;;;0.88;;
16403;SDS011;8311;50.158;8.642;2023-03-23T14:11:30;0.73;;;0.50;;
16403;SDS011;8311;50.158;8.642;2023-03-23T14:14:31;1.08;;;0.63;;
16403;SDS011;8311;50.158;8.642;2023-03-23T14:17:26;0.50;;;0.43;;
16403;SDS011;8311;50.158;8.642;2023-03-23T14:20:23;2.42;;;0.70;;
16403;SDS011;8311;50.158;8.642;2023-03-23T14:23:18;1.45;;;0.80;;
16403;SDS011;8311;50.158;8.642;2023-03-23T14:26:14;1.25;;;0.60;;
16403;SDS011;8311;50.158;8.642;2023-03-23T14:29:09;1.50;;;0.40;;
16403;SDS011;8311;50.158;8.642;2023-03-23T14:32:04;1.17;;;0.82;;
16403;SDS011;8311;50.158;8.642;2023-03-23T14:35:00;1.17;;;0.80;;
16403;SDS011;8311;50.158;8.642;2023-03-23T14:37:57;0.90;;;0.70;;
16403;SDS011;8311;50.158;8.642;2023-03-23T14:40:49;1.95;;;0.70;;
16403;SDS011;8311;50.158;8.642;2023-03-23T14:43:42;0.82;;;0.50;;
16403;SDS011;8311;50.158;8.642;2023-03-23T14:46:34;1.15;;;0.60;;
16403;SDS011;8311;50.158;8.642;2023-03-23T14:49:28;0.60;;;0.50;;
16403;SDS011;8311;50.158;8.642;2023-03-23T14:52:28;3.75;;;0.88;;
16403;SDS011;8311;50.158;8.642;2023-03-23T14:55:23;12.27;;;1.25;;
16403;SDS011;8311;50.158;8.642;2023-03-23T14:58:17;3.75;;;0.80;;
16403;SDS011;8311;50.158;8.642;2023-03-23T15:01:12;3.10;;;0.77;;
16403;SDS011;8311;50.158;8.642;2023-03-23T15:04:08;4.85;;;0.82;;
16403;SDS011;8311;50.158;8.642;2023-03-23T15:07:04;3.35;;;1.02;;
16403;SDS011;8311;50.158;8.642;2023-03-23T15:09:58;3.10;;;0.70;;
16403;SDS011;8311;50.158;8.642;2023-03-23T15:12:51;3.60;;;0.80;;
16403;SDS011;8311;50.158;8.642;2023-03-23T15:15:48;3.42;;;0.88;;
16403;SDS011;8311;50.158;8.642;2023-03-23T15:18:41;3.85;;;0.80;;
16403;SDS011;8311;50.158;8.642;2023-03-23T15:21:46;6.95;;;1.17;;
16403;SDS011;8311;50.158;8.642;2023-03-23T15:24:41;4.88;;;1.13;;
16403;SDS011;8311;50.158;8.642;2023-03-23T15:27:39;2.63;;;0.70;;
16403;SDS011;8311;50.158;8.642;2023-03-23T15:30:32;3.13;;;0.82;;
16403;SDS011;8311;50.158;8.642;2023-03-23T15:33:33;1.52;;;0.70;;
16403;SDS011;8311;50.158;8.642;2023-03-23T15:36:26;3.40;;;1.27;;
16403;SDS011;8311;50.158;8.642;2023-03-23T15:39:23;2.55;;;0.77;;
16403;SDS011;8311;50.158;8.642;2023-03-23T15:42:20;2.83;;;0.77;;
16403;SDS011;8311;50.158;8.642;2023-03-23T15:45:24;1.35;;;0.80;;
16403;SDS011;8311;50.158;8.642;2023-03-23T15:48:18;1.60;;;0.70;;
16403;SDS011;8311;50.158;8.642;2023-03-23T15:51:10;0.82;;;0.50;;
16403;SDS011;8311;50.158;8.642;2023-03-23T15:54:05;1.02;;;0.63;;
16403;SDS011;8311;50.158;8.642;2023-03-23T15:57:04;1.85;;;0.77;;
16403;SDS011;8311;50.158;8.642;2023-03-23T15:59:57;1.35;;;0.60;;
16403;SDS011;8311;50.158;8.642;2023-03-23T16:02:54;1.38;;;0.50;;
16403;SDS011;8311;50.158;8.642;2023-03-23T16:05:49;1.77;;;0.40;;
16403;SDS011;8311;50.158;8.642;2023-03-23T16:08:42;1.15;;;0.75;;
16403;SDS011;8311;50.158;8.642;2023-03-23T16:11:45;1.65;;;0.70;;
16403;SDS011;8311;50.158;8.642;2023-03-23T16:14:38;2.92;;;0.77;;
16403;SDS011;8311;50.158;8.642;2023-03-23T16:17:31;1.40;;;0.80;;
16403;SDS011;8311;50.158;8.642;2023-03-23T16:20:27;2.78;;;0.75;;
16403;SDS011;8311;50.158;8.642;2023-03-23T16:23:23;1.27;;;0.70;;
16403;SDS011;8311;50.158;8.642;2023-03-23T16:26:16;0.55;;;0.50;;
16403;SDS011;8311;50.158;8.642;2023-03-23T16:29:10;1.58;;;0.80;;
16403;SDS011;8311;50.158;8.642;2023-03-23T16:32:24;1.75;;;0.70;;
16403;SDS011;8311;50.158;8.642;2023-03-23T16:35:17;1.00;;;0.70;;
16403;SDS011;8311;50.158;8.642;2023-03-23T16:38:13;2.00;;;0.85;;
16403;SDS011;8311;50.158;8.642;2023-03-23T16:41:07;1.02;;;0.50;;
16403;SDS011;8311;50.158;8.642;2023-03-23T16:44:00;1.75;;;0.65;;
16403;SDS011;8311;50.158;8.642;2023-03-23T16:46:53;0.57;;;0.50;;
16403;SDS011;8311;50.158;8.642;2023-03-23T16:49:46;1.20;;;0.80;;
16403;SDS011;8311;50.158;8.642;2023-03-23T16:52:42;0.47;;;0.43;;
16403;SDS011;8311;50.158;8.642;2023-03-23T16:55:39;0.40;;;0.40;;
16403;SDS011;8311;50.158;8.642;2023-03-23T16:58:34;0.60;;;0.50;;
16403;SDS011;8311;50.158;8.642;2023-03-23T17:01:28;1.48;;;0.60;;
16403;SDS011;8311;50.158;8.642;2023-03-23T17:04:21;1.08;;;0.60;;
16403;SDS011;8311;50.158;8.642;2023-03-23T17:07:14;0.45;;;0.45;;
16403;SDS011;8311;50.158;8.642;2023-03-23T17:10:09;1.30;;;0.60;;
16403;SDS011;8311;50.158;8.642;2023-03-23T17:13:05;0.98;;;0.55;;
16403;SDS011;8311;50.158;8.642;2023-03-23T17:15:59;1.35;;;0.80;;
16403;SDS011;8311;50.158;8.642;2023-03-23T17:18:52;1.48;;;0.75;;
16403;SDS011;8311;50.158;8.642;2023-03-23T17:21:46;1.80;;;0.80;;
16403;SDS011;8311;50.158;8.642;2023-03-23T17:24:39;1.17;;;0.70;;
16403;SDS011;8311;50.158;8.642;2023-03-23T17:27:32;1.58;;;0.75;;
16403;SDS011;8311;50.158;8.642;2023-03-23T17:30:27;1.55;;;1.00;;
16403;SDS011;8311;50.158;8.642;2023-03-23T17:33:20;1.50;;;0.80;;
16403;SDS011;8311;50.158;8.642;2023-03-23T17:36:14;2.47;;;1.08;;
16403;SDS011;8311;50.158;8.642;2023-03-23T17:39:07;1.75;;;0.90;;
16403;SDS011;8311;50.158;8.642;2023-03-23T17:42:00;2.80;;;1.13;;
16403;SDS011;8311;50.158;8.642;2023-03-23T17:44:54;3.42;;;0.90;;
16403;SDS011;8311;50.158;8.642;2023-03-23T17:47:49;2.30;;;1.10;;
16403;SDS011;8311;50.158;8.642;2023-03-23T17:50:45;3.35;;;1.40;;
16403;SDS011;8311;50.158;8.642;2023-03-23T17:53:38;1.27;;;1.00;;
16403;SDS011;8311;50.158;8.642;2023-03-23T17:56:31;2.20;;;1.00;;
16403;SDS011;8311;50.158;8.642;2023-03-23T17:59:24;1.75;;;1.13;;